createdAt,value
2024-05-09T00:00:22.074Z,13.19
2024-05-09T00:02:53.278Z,13.14
2024-05-09T00:05:20.129Z,13.19
2024-05-09T00:07:46.898Z,13.16
2024-05-09T00:10:22.384Z,13.04
2024-05-09T00:12:56.068Z,13.09
2024-05-09T00:15:22.874Z,12.92
2024-05-09T00:17:49.801Z,12.91
2024-05-09T00:20:23.917Z,13.00
2024-05-09T00:22:54.656Z,12.82
2024-05-09T00:25:21.434Z,12.83
2024-05-09T00:27:48.057Z,12.69
2024-05-09T00:30:21.557Z,12.76
2024-05-09T00:32:55.440Z,12.75
2024-05-09T00:35:22.370Z,12.70
2024-05-09T00:37:49.223Z,12.62
2024-05-09T00:40:22.928Z,12.74
2024-05-09T00:42:57.646Z,12.60
2024-05-09T00:45:24.218Z,12.65
2024-05-09T00:47:51.404Z,12.66
2024-05-09T00:50:23.040Z,12.70
2024-05-09T00:52:56.630Z,12.42
2024-05-09T00:55:24.052Z,12.64
2024-05-09T00:57:51.125Z,12.62
2024-05-09T01:00:25.990Z,12.64
2024-05-09T01:02:57.604Z,12.63
2024-05-09T01:05:24.435Z,12.59
2024-05-09T01:07:51.355Z,12.52
2024-05-09T01:10:24.302Z,12.35
2024-05-09T01:13:18.673Z,12.39
2024-05-09T01:16:05.723Z,12.13
2024-05-09T01:18:52.635Z,12.17
2024-05-09T01:21:41.416Z,12.28
2024-05-09T01:24:28.025Z,12.24
2024-05-09T01:27:14.649Z,12.26
2024-05-09T01:29:41.359Z,12.36
2024-05-09T01:32:08.127Z,12.32
2024-05-09T01:34:34.871Z,12.17
2024-05-09T01:37:01.550Z,12.16
2024-05-09T01:39:28.147Z,12.12
2024-05-09T01:41:54.888Z,12.12
2024-05-09T01:44:21.602Z,12.27
2024-05-09T01:46:48.396Z,12.16
2024-05-09T01:49:15.466Z,12.19
2024-05-09T01:51:42.175Z,12.02
2024-05-09T01:54:08.950Z,12.17
2024-05-09T01:56:35.771Z,12.11
2024-05-09T01:59:02.568Z,11.92
2024-05-09T02:01:30.783Z,11.85
2024-05-09T02:04:17.804Z,11.93
2024-05-09T02:06:44.531Z,11.95
2024-05-09T02:09:11.388Z,11.95
2024-05-09T02:11:44.064Z,12.06
2024-05-09T02:14:11.077Z,12.06
2024-05-09T02:16:37.907Z,12.07
2024-05-09T02:19:05.038Z,11.93
2024-05-09T02:21:34.214Z,11.88
2024-05-09T02:24:00.985Z,11.87
2024-05-09T02:26:27.852Z,11.80
2024-05-09T02:28:54.637Z,11.50
2024-05-09T02:31:21.369Z,11.32
2024-05-09T02:33:48.267Z,11.45
2024-05-09T02:36:15.188Z,11.62
2024-05-09T02:38:42.045Z,11.55
2024-05-09T02:41:09.325Z,11.66
2024-05-09T02:43:36.084Z,11.46
2024-05-09T02:46:02.682Z,11.55
2024-05-09T02:48:29.352Z,11.63
2024-05-09T02:50:56.142Z,11.58
2024-05-09T02:53:22.842Z,11.64
2024-05-09T02:55:49.647Z,11.60
2024-05-09T02:58:16.566Z,11.51
2024-05-09T03:00:43.439Z,11.54
2024-05-09T03:03:13.495Z,11.34
2024-05-09T03:05:45.990Z,11.42
2024-05-09T03:08:13.409Z,11.36
2024-05-09T03:10:40.204Z,11.39
2024-05-09T03:13:15.491Z,11.36
2024-05-09T03:15:43.930Z,11.30
2024-05-09T03:18:11.537Z,11.28
2024-05-09T03:20:39.151Z,11.17
2024-05-09T03:23:08.905Z,10.88
2024-05-09T03:25:36.896Z,10.94
2024-05-09T03:28:03.808Z,10.99
2024-05-09T03:30:39.175Z,10.75
2024-05-09T03:33:19.789Z,10.88
2024-05-09T03:35:48.221Z,10.95
2024-05-09T03:38:15.410Z,10.71
2024-05-09T03:40:50.215Z,10.64
2024-05-09T03:43:18.186Z,10.78
2024-05-09T03:45:45.669Z,10.64
2024-05-09T03:48:13.245Z,10.78
2024-05-09T03:50:40.925Z,10.81
2024-05-09T03:53:11.090Z,10.77
2024-05-09T03:55:37.894Z,10.67
2024-05-09T03:58:04.926Z,10.67
2024-05-09T04:00:37.633Z,10.56
2024-05-09T04:03:09.476Z,10.68
2024-05-09T04:05:43.901Z,10.57
2024-05-09T04:08:12.795Z,10.54
2024-05-09T04:10:40.340Z,10.54
2024-05-09T04:13:07.127Z,10.55
2024-05-09T04:15:34.201Z,10.45
2024-05-09T04:18:01.825Z,10.43
2024-05-09T04:20:37.146Z,10.49
2024-05-09T04:23:08.455Z,10.47
2024-05-09T04:25:36.664Z,10.55
2024-05-09T04:28:03.587Z,10.58
2024-05-09T04:30:36.991Z,10.60
2024-05-09T04:33:09.267Z,10.62
2024-05-09T04:35:38.329Z,10.54
2024-05-09T04:38:05.526Z,10.50
2024-05-09T04:40:35.593Z,10.49
2024-05-09T04:43:07.612Z,10.43
2024-05-09T04:45:34.973Z,10.32
2024-05-09T04:48:02.436Z,10.32
2024-05-09T04:50:36.108Z,10.29
2024-05-09T04:53:10.483Z,10.44
2024-05-09T04:55:38.350Z,10.43
2024-05-09T04:58:08.930Z,10.35
2024-05-09T05:00:37.898Z,10.32
2024-05-09T05:03:08.535Z,10.35
2024-05-09T05:05:40.982Z,10.18
2024-05-09T05:08:12.298Z,10.19
2024-05-09T05:10:39.285Z,10.44
2024-05-09T05:13:23.909Z,10.44
2024-05-09T05:15:58.469Z,10.51
2024-05-09T05:18:29.031Z,10.63
2024-05-09T05:20:56.469Z,10.61
2024-05-09T05:23:24.428Z,10.62
2024-05-09T05:25:54.268Z,10.75
2024-05-09T05:28:21.950Z,10.71
2024-05-09T05:30:49.038Z,10.77
2024-05-09T05:33:18.141Z,10.74
2024-05-09T05:35:45.246Z,10.81
2024-05-09T05:38:11.981Z,10.88
2024-05-09T05:40:39.904Z,10.96
2024-05-09T05:43:09.744Z,11.02
2024-05-09T05:45:36.844Z,11.01
2024-05-09T05:48:05.538Z,11.08
2024-05-09T05:50:36.504Z,11.14
2024-05-09T05:53:09.958Z,11.24
2024-05-09T05:55:40.899Z,11.29
2024-05-09T05:58:14.927Z,11.36
2024-05-09T06:00:42.584Z,11.38
2024-05-09T06:03:11.675Z,11.48
2024-05-09T06:05:40.502Z,11.58
2024-05-09T06:08:08.483Z,11.69
2024-05-09T06:10:39.174Z,11.79
2024-05-09T06:13:10.664Z,11.89
2024-05-09T06:15:37.551Z,11.96
2024-05-09T06:18:08.752Z,12.02
2024-05-09T06:20:38.023Z,12.11
2024-05-09T06:23:10.118Z,12.28
2024-05-09T06:25:38.613Z,12.41
2024-05-09T06:28:06.049Z,12.48
2024-05-09T06:33:02.908Z,12.65
2024-05-09T06:35:29.864Z,12.62
2024-05-09T06:37:56.848Z,12.68
2024-05-09T06:40:29.236Z,12.68
2024-05-09T06:43:01.068Z,12.98
2024-05-09T06:45:27.678Z,13.10
2024-05-09T06:47:54.650Z,13.20
2024-05-09T06:50:24.428Z,13.38
2024-05-09T06:52:55.137Z,13.37
2024-05-09T06:55:22.037Z,13.32
2024-05-09T06:57:48.770Z,13.56
2024-05-09T07:00:22.864Z,13.67
2024-05-09T07:02:59.068Z,13.98
2024-05-09T07:05:27.017Z,13.98
2024-05-09T07:07:53.847Z,14.16
2024-05-09T07:10:28.642Z,14.47
2024-05-09T07:12:59.558Z,14.34
2024-05-09T07:15:27.284Z,14.50
2024-05-09T07:17:54.205Z,14.60
2024-05-09T07:20:31.679Z,14.73
2024-05-09T07:23:02.294Z,14.80
2024-05-09T07:25:29.345Z,15.00
2024-05-09T07:27:56.680Z,15.18
2024-05-09T07:30:30.250Z,15.21
2024-05-09T07:33:00.520Z,15.57
2024-05-09T07:35:27.898Z,15.65
2024-05-09T07:37:54.845Z,15.75
2024-05-09T07:40:29.060Z,15.96
2024-05-09T07:43:07.338Z,16.07
2024-05-09T07:52:32.421Z,16.66
2024-05-09T07:55:55.872Z,16.94
2024-05-09T07:58:27.507Z,16.88
2024-05-09T08:00:54.685Z,17.00
2024-05-09T08:03:22.789Z,16.97
2024-05-09T08:05:49.797Z,17.15
2024-05-09T08:08:16.935Z,17.27
2024-05-09T08:10:43.786Z,17.11
2024-05-09T08:13:10.724Z,17.13
2024-05-09T08:15:38.069Z,17.07
2024-05-09T08:18:08.946Z,17.02
2024-05-09T08:20:38.012Z,17.29
2024-05-09T08:23:04.887Z,17.48
2024-05-09T08:25:31.714Z,17.55
2024-05-09T08:27:58.414Z,17.77
2024-05-09T08:30:32.569Z,18.08
2024-05-09T08:33:07.591Z,17.95
2024-05-09T08:35:35.409Z,17.84
2024-05-09T08:38:03.721Z,18.23
2024-05-09T08:40:35.734Z,18.51
2024-05-09T08:43:09.846Z,18.70
2024-05-09T08:45:42.123Z,18.92
2024-05-09T08:48:12.085Z,19.10
2024-05-09T08:50:40.961Z,19.22
2024-05-09T08:53:08.649Z,19.32
2024-05-09T08:55:40.225Z,19.47
2024-05-09T08:58:12.628Z,19.63
2024-05-09T09:03:11.752Z,19.94
2024-05-09T09:05:40.027Z,20.06
2024-05-09T09:08:08.607Z,20.20
2024-05-09T09:10:36.457Z,20.26
2024-05-09T09:13:09.632Z,20.30
2024-05-09T09:15:49.856Z,20.62
2024-05-09T09:18:17.746Z,20.70
2024-05-09T09:20:45.622Z,20.67
2024-05-09T09:23:12.558Z,20.90
2024-05-09T09:25:40.719Z,20.99
2024-05-09T09:28:08.133Z,21.07
2024-05-09T09:30:38.888Z,21.42
2024-05-09T09:33:06.681Z,21.67
2024-05-09T09:35:36.028Z,21.61
2024-05-09T09:38:04.646Z,21.61
2024-05-09T09:40:45.096Z,21.93
2024-05-09T09:43:21.067Z,21.99
2024-05-09T09:45:53.596Z,21.73
2024-05-09T09:48:22.205Z,22.34
2024-05-09T09:50:51.849Z,22.26
2024-05-09T09:53:19.658Z,22.39
2024-05-09T09:55:47.291Z,21.51
2024-05-09T09:58:18.272Z,22.42
2024-05-09T10:00:45.494Z,22.54
2024-05-09T10:03:12.476Z,22.48
2024-05-09T10:05:42.175Z,22.39
2024-05-09T10:08:12.216Z,22.93
2024-05-09T10:10:39.791Z,22.85
2024-05-09T10:13:07.885Z,22.42
2024-05-09T10:15:48.566Z,22.67
2024-05-09T10:18:15.708Z,23.14
2024-05-09T10:20:43.937Z,23.27
2024-05-09T10:23:27.849Z,23.44
2024-05-09T10:26:03.232Z,23.46
2024-05-09T10:28:37.927Z,23.90
2024-05-09T10:31:13.398Z,23.33
2024-05-09T10:33:47.685Z,23.06
2024-05-09T10:36:22.260Z,23.49
2024-05-09T10:38:50.146Z,23.76
2024-05-09T10:41:17.928Z,23.77
2024-05-09T10:43:44.725Z,23.87
2024-05-09T10:46:12.106Z,23.60
2024-05-09T10:48:41.321Z,24.00
2024-05-09T10:51:09.018Z,24.36
2024-05-09T10:53:46.727Z,24.34
2024-05-09T10:56:14.646Z,23.96
2024-05-09T10:58:42.479Z,24.10
2024-05-09T11:01:10.260Z,24.41
2024-05-09T11:03:38.141Z,24.29
2024-05-09T11:06:06.330Z,24.52
2024-05-09T11:08:34.085Z,24.45
2024-05-09T11:11:02.952Z,24.31
2024-05-09T11:13:31.539Z,24.06
2024-05-09T11:16:02.319Z,24.25
2024-05-09T11:18:35.017Z,24.53
2024-05-09T11:21:12.406Z,24.86
2024-05-09T11:23:39.595Z,24.89
2024-05-09T11:26:07.083Z,25.03
2024-05-09T11:28:33.811Z,25.27
2024-05-09T11:31:09.195Z,24.26
2024-05-09T11:33:38.611Z,24.27
2024-05-09T11:36:06.610Z,24.22
2024-05-09T11:38:33.527Z,24.75
2024-05-09T11:41:02.389Z,25.32
2024-05-09T11:43:29.111Z,25.70
2024-05-09T11:45:59.936Z,25.72
2024-05-09T11:48:27.047Z,25.49
2024-05-09T11:50:56.968Z,25.54
2024-05-09T11:53:23.986Z,25.16
2024-05-09T11:55:50.753Z,25.65
2024-05-09T11:58:18.890Z,25.67
2024-05-09T12:00:46.480Z,25.64
2024-05-09T12:03:13.563Z,26.21
2024-05-09T12:05:40.585Z,26.25
2024-05-09T12:08:07.674Z,26.11
2024-05-09T12:10:36.808Z,25.94
2024-05-09T12:13:06.098Z,25.24
2024-05-09T12:15:36.597Z,26.19
2024-05-09T12:18:04.983Z,26.01
2024-05-09T12:20:37.497Z,26.57
2024-05-09T12:23:07.527Z,26.56
2024-05-09T12:25:35.764Z,26.56
2024-05-09T12:28:02.728Z,26.89
2024-05-09T12:30:36.356Z,27.25
2024-05-09T12:33:08.292Z,27.55
2024-05-09T12:35:35.280Z,27.61
2024-05-09T12:38:02.183Z,27.83
2024-05-09T12:40:35.727Z,27.87
2024-05-09T12:43:06.940Z,27.84
2024-05-09T12:45:34.009Z,27.16
2024-05-09T12:48:01.067Z,27.41
2024-05-09T12:50:32.936Z,28.40
2024-05-09T12:53:02.365Z,28.16
2024-05-09T12:55:34.242Z,28.36
2024-05-09T12:58:08.685Z,28.70
2024-05-09T13:00:36.204Z,28.15
2024-05-09T13:03:03.174Z,27.61
2024-05-09T13:05:30.401Z,27.80
2024-05-09T13:07:58.248Z,28.27
2024-05-09T13:10:31.788Z,28.15
2024-05-09T13:13:01.140Z,28.20
2024-05-09T13:15:30.326Z,29.19
2024-05-09T13:18:00.562Z,29.18
2024-05-09T13:20:33.668Z,29.39
2024-05-09T13:23:03.626Z,29.06
2024-05-09T13:25:30.537Z,29.36
2024-05-09T13:27:57.735Z,29.50
2024-05-09T13:30:30.248Z,28.71
2024-05-09T13:33:06.573Z,29.76
2024-05-09T13:35:36.883Z,29.80
2024-05-09T13:38:04.474Z,29.40
2024-05-09T13:40:34.766Z,29.67
2024-05-09T13:43:04.804Z,29.10
2024-05-09T13:45:32.076Z,29.72
2024-05-09T13:47:59.252Z,29.91
2024-05-09T13:50:33.367Z,29.72
2024-05-09T13:53:04.618Z,29.73
2024-05-09T13:55:31.729Z,29.31
2024-05-09T13:57:58.637Z,30.42
2024-05-09T14:02:55.194Z,29.28
2024-05-09T14:05:22.135Z,29.55
2024-05-09T14:07:49.112Z,30.23
2024-05-09T14:10:23.181Z,30.07
2024-05-09T14:12:55.743Z,30.66
2024-05-09T14:15:22.853Z,30.51
2024-05-09T14:17:49.698Z,30.43
2024-05-09T14:20:23.718Z,31.09
2024-05-09T14:22:57.825Z,30.95
2024-05-09T14:25:26.758Z,31.18
2024-05-09T14:27:54.120Z,30.53
2024-05-09T14:30:30.180Z,30.97
2024-05-09T14:33:02.784Z,31.68
2024-05-09T14:35:29.559Z,31.44
2024-05-09T14:37:56.436Z,31.10
2024-05-09T14:40:35.915Z,31.50
2024-05-09T14:43:08.235Z,31.93
2024-05-09T14:45:35.108Z,31.12
2024-05-09T14:48:02.867Z,31.75
2024-05-09T14:50:35.857Z,31.99
2024-05-09T14:53:07.508Z,32.21
2024-05-09T14:55:37.448Z,32.56
2024-05-09T14:58:09.247Z,32.47
2024-05-09T15:00:45.999Z,32.23
2024-05-09T15:03:17.008Z,31.89
2024-05-09T15:05:45.327Z,31.97
2024-05-09T15:08:12.365Z,32.22
2024-05-09T15:10:39.224Z,32.33
2024-05-09T15:13:08.112Z,31.99
2024-05-09T15:15:37.137Z,31.66
2024-05-09T15:18:05.143Z,31.89
2024-05-09T15:20:35.997Z,32.12
2024-05-09T15:23:06.638Z,32.37
2024-05-09T15:25:35.349Z,32.55
2024-05-09T15:28:02.534Z,32.23
2024-05-09T15:30:32.306Z,31.80
2024-05-09T15:33:03.188Z,32.41
2024-05-09T15:35:30.133Z,32.14
2024-05-09T15:37:56.828Z,32.42
2024-05-09T15:40:34.440Z,31.54
2024-05-09T15:43:06.706Z,30.98
2024-05-09T15:45:34.089Z,30.32
2024-05-09T15:48:02.588Z,30.47
2024-05-09T15:50:36.986Z,30.83
2024-05-09T15:53:08.690Z,31.26
2024-05-09T15:55:36.284Z,30.17
2024-05-09T15:58:04.268Z,31.14
2024-05-09T16:00:38.925Z,31.66
2024-05-09T16:03:13.350Z,31.73
2024-05-09T16:05:42.981Z,31.11
2024-05-09T16:08:11.498Z,31.69
2024-05-09T16:10:44.487Z,31.52
2024-05-09T16:13:12.742Z,31.71
2024-05-09T16:15:40.090Z,32.07
2024-05-09T16:18:07.488Z,30.90
2024-05-09T16:20:39.635Z,31.24
2024-05-09T16:23:09.034Z,31.15
2024-05-09T16:25:36.277Z,31.84
2024-05-09T16:28:07.412Z,31.97
2024-05-09T16:30:37.236Z,32.19
2024-05-09T16:33:05.331Z,32.15
2024-05-09T16:35:34.614Z,32.23
2024-05-09T16:38:02.930Z,32.26
2024-05-09T16:40:37.364Z,31.89
2024-05-09T16:43:07.872Z,32.19
2024-05-09T16:45:35.360Z,31.40
2024-05-09T16:48:02.863Z,31.30
2024-05-09T16:50:33.798Z,30.89
2024-05-09T16:53:03.234Z,30.71
2024-05-09T16:55:30.318Z,30.91
2024-05-09T16:57:58.095Z,31.32
2024-05-09T17:00:35.860Z,30.59
2024-05-09T17:03:09.746Z,29.73
2024-05-09T17:05:37.346Z,29.44
2024-05-09T17:08:05.008Z,28.96
2024-05-09T17:10:34.162Z,28.16
2024-05-09T17:13:03.836Z,28.18
2024-05-09T17:15:32.271Z,27.96
2024-05-09T17:17:59.232Z,27.39
2024-05-09T17:20:32.435Z,27.25
2024-05-09T17:23:03.252Z,27.33
2024-05-09T17:25:30.094Z,27.08
2024-05-09T17:27:57.324Z,26.97
2024-05-09T17:30:29.166Z,27.13
2024-05-09T17:33:03.305Z,27.02
2024-05-09T17:35:30.058Z,26.83
2024-05-09T17:37:58.028Z,26.46
2024-05-09T17:40:31.131Z,26.38
2024-05-09T17:43:01.730Z,26.35
2024-05-09T17:45:28.704Z,26.10
2024-05-09T17:47:55.772Z,25.39
2024-05-09T17:50:30.311Z,25.18
2024-05-09T17:53:01.755Z,25.39
2024-05-09T17:55:28.834Z,25.00
2024-05-09T17:57:55.937Z,24.99
2024-05-09T18:00:33.150Z,23.75
2024-05-09T18:03:06.398Z,24.32
2024-05-09T18:05:38.165Z,24.67
2024-05-09T18:08:08.408Z,24.58
2024-05-09T18:10:38.598Z,24.43
2024-05-09T18:13:11.428Z,24.34
2024-05-09T18:15:39.030Z,24.28
2024-05-09T18:18:06.611Z,23.98
2024-05-09T18:20:41.835Z,23.87
2024-05-09T18:23:17.178Z,23.76
2024-05-09T18:25:45.796Z,23.55
2024-05-09T18:28:13.427Z,23.37
2024-05-09T18:30:40.981Z,23.01
2024-05-09T18:33:10.655Z,22.94
2024-05-09T18:35:37.790Z,22.96
2024-05-09T18:38:05.314Z,22.69
2024-05-09T18:40:35.989Z,22.54
2024-05-09T18:43:06.882Z,22.34
2024-05-09T18:45:36.109Z,22.23
2024-05-09T18:48:04.891Z,21.96
2024-05-09T18:50:36.170Z,22.03
2024-05-09T18:53:06.473Z,21.64
2024-05-09T18:55:33.344Z,21.47
2024-05-09T18:58:00.104Z,21.15
2024-05-09T19:00:34.133Z,21.20
2024-05-09T19:03:08.099Z,21.03
2024-05-09T19:05:36.434Z,21.12
2024-05-09T19:08:03.719Z,20.70
2024-05-09T19:10:34.449Z,20.68
2024-05-09T19:13:06.810Z,20.49
2024-05-09T19:15:38.380Z,20.38
2024-05-09T19:18:06.307Z,20.33
2024-05-09T19:20:35.278Z,20.12
2024-05-09T19:23:03.608Z,20.09
2024-05-09T19:25:30.581Z,19.82
2024-05-09T19:27:57.433Z,19.69
2024-05-09T19:30:32.986Z,19.54
2024-05-09T19:33:06.047Z,19.45
2024-05-09T19:35:33.083Z,19.27
2024-05-09T19:38:00.014Z,19.39
2024-05-09T19:40:31.503Z,18.86
2024-05-09T19:43:01.725Z,19.04
2024-05-09T19:45:29.130Z,18.98
2024-05-09T19:47:56.354Z,18.53
2024-05-09T19:50:32.128Z,18.83
2024-05-09T19:53:06.900Z,18.70
2024-05-09T19:55:35.020Z,18.64
2024-05-09T19:58:05.378Z,18.35
2024-05-09T20:00:40.265Z,18.31
2024-05-09T20:03:09.868Z,18.49
2024-05-09T20:05:37.697Z,18.31
2024-05-09T20:08:05.747Z,18.19
2024-05-09T20:10:35.009Z,18.29
2024-05-09T20:13:04.479Z,18.18
2024-05-09T20:15:34.087Z,18.09
2024-05-09T20:18:01.336Z,18.13
2024-05-09T20:20:36.108Z,18.00
2024-05-09T20:23:06.739Z,17.90
2024-05-09T20:25:33.391Z,17.90
2024-05-09T20:28:00.145Z,17.66
2024-05-09T20:30:32.091Z,17.68
2024-05-09T20:33:03.037Z,17.77
2024-05-09T20:35:32.286Z,17.65
2024-05-09T20:37:59.500Z,17.61
2024-05-09T20:40:32.513Z,17.57
2024-05-09T20:43:02.763Z,17.39
2024-05-09T20:45:29.537Z,17.35
2024-05-09T20:47:56.439Z,17.22
2024-05-09T20:50:32.044Z,17.13
2024-05-09T20:53:05.430Z,16.91
2024-05-09T20:55:32.328Z,16.82
2024-05-09T20:57:59.268Z,16.65
2024-05-09T21:00:34.864Z,16.68
2024-05-09T21:03:07.236Z,16.83
2024-05-09T21:05:35.060Z,16.53
2024-05-09T21:08:02.603Z,16.52
2024-05-09T21:10:32.929Z,16.32
2024-05-09T21:13:01.871Z,16.20
2024-05-09T21:15:29.423Z,16.16
2024-05-09T21:17:56.123Z,16.11
2024-05-09T21:20:28.894Z,16.13
2024-05-09T21:22:58.634Z,16.05
2024-05-09T21:25:25.446Z,16.01
2024-05-09T21:27:52.565Z,15.89
2024-05-09T21:30:31.229Z,15.95
2024-05-09T21:33:06.022Z,15.45
2024-05-09T21:35:32.801Z,15.56
2024-05-09T21:37:59.757Z,15.59
2024-05-09T21:40:33.492Z,15.49
2024-05-09T21:43:02.321Z,15.29
2024-05-09T21:45:29.395Z,15.28
2024-05-09T21:47:56.187Z,15.17
2024-05-09T21:50:28.761Z,15.25
2024-05-09T21:53:03.835Z,15.23
2024-05-09T21:55:30.604Z,15.14
2024-05-09T21:57:57.519Z,14.98
2024-05-09T22:00:32.268Z,14.76
2024-05-09T22:03:03.774Z,14.83
2024-05-09T22:05:30.900Z,14.85
2024-05-09T22:07:57.752Z,14.62
2024-05-09T22:10:30.997Z,14.71
2024-05-09T22:13:01.767Z,14.61
2024-05-09T22:15:28.687Z,14.63
2024-05-09T22:17:57.442Z,14.48
2024-05-09T22:20:33.877Z,14.55
2024-05-09T22:23:04.600Z,14.13
2024-05-09T22:25:32.335Z,14.23
2024-05-09T22:28:00.677Z,13.99
2024-05-09T22:30:34.955Z,14.15
2024-05-09T22:33:10.668Z,14.04
2024-05-09T22:35:40.895Z,14.01
2024-05-09T22:38:08.160Z,14.05
2024-05-09T22:40:45.434Z,14.21
2024-05-09T22:43:24.008Z,14.20
2024-05-09T22:45:55.544Z,14.03
2024-05-09T22:48:24.256Z,14.04
2024-05-09T22:50:51.762Z,13.90
2024-05-09T22:53:18.517Z,13.91
2024-05-09T22:55:45.280Z,13.72
2024-05-09T22:58:12.014Z,13.76
2024-05-09T23:00:38.978Z,13.84
2024-05-09T23:03:06.076Z,13.59
2024-05-09T23:05:33.170Z,13.56
2024-05-09T23:08:01.492Z,13.48
2024-05-09T23:10:35.442Z,13.54
2024-05-09T23:13:04.569Z,13.56
2024-05-09T23:15:31.805Z,13.53
2024-05-09T23:17:58.976Z,13.59
2024-05-09T23:20:35.861Z,13.24
2024-05-09T23:23:06.859Z,13.40
2024-05-09T23:25:34.055Z,13.08
2024-05-09T23:28:00.878Z,13.23
2024-05-09T23:30:36.065Z,13.08
2024-05-09T23:33:06.974Z,13.27
2024-05-09T23:35:33.732Z,13.11
2024-05-09T23:38:00.476Z,13.05
2024-05-09T23:40:37.321Z,13.10
2024-05-09T23:43:11.603Z,13.02
2024-05-09T23:45:39.161Z,13.01
2024-05-09T23:48:06.820Z,13.03
2024-05-09T23:50:36.778Z,12.99
2024-05-09T23:53:07.097Z,13.06
2024-05-09T23:55:34.982Z,13.14
2024-05-09T23:58:01.900Z,12.89
